Time;durP1;ratioP1;P1;durP2;ratioP2;P2;SDS_P1;SDS_P2;PMS_P1;PMS_P2;Temp;Humidity;BMP_temperature;BMP_pressure;BME280_temperature;BME280_humidity;BME280_pressure;Samples;Min_cycle;Max_cycle;Signal;HPM_P1;HPM_P2
2024/01/17 00:01:02;;;;;;;7.50;7.10;;;;;;;-5.25;100.00;97271.97;4182316;28;20618;-52
2024/01/17 00:03:04;;;;;;;7.07;5.93;;;;;;;-5.36;100.00;97274.25;4168439;28;20782;-52
2024/01/17 00:05:06;;;;;;;6.90;6.33;;;;;;;-5.39;100.00;97264.78;4169492;28;20247;-51
2024/01/17 00:07:08;;;;;;;7.17;6.47;;;;;;;-5.40;100.00;97268.47;4169140;28;20214;-52
2024/01/17 00:09:10;;;;;;;10.10;5.40;;;;;;;-5.43;100.00;97263.47;4174846;28;20216;-52
2024/01/17 00:11:12;;;;;;;6.90;6.53;;;;;;;-5.43;100.00;97268.81;4169669;28;20212;-52
2024/01/17 00:13:13;;;;;;;6.37;5.97;;;;;;;-5.37;100.00;97262.75;4168640;28;20220;-51
2024/01/17 00:15:15;;;;;;;6.93;6.40;;;;;;;-5.40;100.00;97260.47;4166241;28;20233;-51
2024/01/17 00:17:17;;;;;;;7.20;6.60;;;;;;;-5.42;100.00;97254.47;4174784;28;20211;-51
2024/01/17 00:19:19;;;;;;;9.43;6.73;;;;;;;-5.40;100.00;97260.47;4169346;28;20680;-51
2024/01/17 00:21:21;;;;;;;7.57;7.07;;;;;;;-5.32;100.00;97271.03;4167901;28;20720;-52
2024/01/17 00:23:22;;;;;;;6.97;6.40;;;;;;;-5.43;100.00;97258.16;4175924;28;20289;-51
2024/01/17 00:25:25;;;;;;;6.27;5.90;;;;;;;-5.41;100.00;97245.50;4170717;28;20721;-52
2024/01/17 00:27:27;;;;;;;6.23;5.73;;;;;;;-5.46;100.00;97237.22;4169493;28;20611;-51
2024/01/17 00:29:29;;;;;;;6.07;5.67;;;;;;;-5.28;100.00;97243.03;4169982;28;20214;-51
2024/01/17 00:31:30;;;;;;;11.77;6.93;;;;;;;-5.38;100.00;97250.44;4169720;28;20243;-51
2024/01/17 00:33:32;;;;;;;3.20;3.00;;;;;;;-5.37;100.00;97244.09;4168439;28;20222;-52
2024/01/17 00:35:34;;;;;;;5.43;5.23;;;;;;;-5.37;100.00;97249.44;4168441;28;20315;-52
2024/01/17 00:37:36;;;;;;;7.33;6.70;;;;;;;-5.34;100.00;97251.75;4169292;28;20315;-52
2024/01/17 00:39:38;;;;;;;6.07;5.43;;;;;;;-5.32;100.00;97247.06;4168828;28;20212;-52
2024/01/17 00:41:40;;;;;;;7.43;6.83;;;;;;;-5.29;100.00;97246.69;4173398;28;20239;-52
2024/01/17 00:43:42;;;;;;;5.47;5.17;;;;;;;-5.28;100.00;97245.69;4154424;28;20613;-51
2024/01/17 00:45:44;;;;;;;8.10;7.13;;;;;;;-5.32;100.00;97243.56;4179153;28;20242;-52
2024/01/17 00:47:46;;;;;;;6.53;6.03;;;;;;;-5.32;100.00;97238.22;4161187;28;20213;-51
2024/01/17 00:49:48;;;;;;;8.07;6.90;;;;;;;-5.32;100.00;97236.41;4172989;28;20200;-53
2024/01/17 00:51:50;;;;;;;17.27;10.07;;;;;;;-5.28;100.00;97240.38;4177442;28;20746;-52
2024/01/17 00:53:53;;;;;;;13.73;11.33;;;;;;;-5.27;100.00;97237.50;4178295;28;20212;-52
2024/01/17 00:55:55;;;;;;;14.53;9.10;;;;;;;-5.19;100.00;97225.94;4177110;28;20228;-52
2024/01/17 00:57:57;;;;;;;13.67;12.43;;;;;;;-5.22;100.00;97220.94;4158159;28;20209;-52
2024/01/17 00:59:59;;;;;;;14.60;10.57;;;;;;;-5.24;100.00;97222.97;4187628;28;20293;-54
2024/01/17 01:02:02;;;;;;;11.83;10.03;;;;;;;-5.25;100.00;97226.66;4171136;28;20225;-53
2024/01/17 01:04:04;;;;;;;14.07;12.87;;;;;;;-5.20;100.00;97216.28;4168439;28;20208;-53
2024/01/17 01:06:08;;;;;;;11.87;9.20;;;;;;;-5.21;100.00;97209.31;4170915;28;20919;-52
2024/01/17 01:08:10;;;;;;;26.20;9.27;;;;;;;-5.17;100.00;97199.91;4185039;28;20636;-52
2024/01/17 01:10:12;;;;;;;12.40;8.83;;;;;;;-5.19;100.00;97191.28;4184671;28;20239;-51
2024/01/17 01:12:13;;;;;;;12.47;7.63;;;;;;;-5.18;100.00;97182.25;4185665;28;20234;-52
2024/01/17 01:14:15;;;;;;;5.77;5.30;;;;;;;-5.19;100.00;97191.28;4176978;28;20220;-51
2024/01/17 01:16:17;;;;;;;5.90;5.57;;;;;;;-5.08;100.00;97183.63;4177238;28;20236;-52
2024/01/17 01:18:19;;;;;;;6.90;6.60;;;;;;;-5.16;100.00;97185.56;4171834;28;20211;-52
2024/01/17 01:20:21;;;;;;;7.73;7.17;;;;;;;-5.05;100.00;97183.28;4155809;28;20216;-51
2024/01/17 01:22:23;;;;;;;5.50;5.20;;;;;;;-5.11;100.00;97186.69;4170857;28;20596;-52
2024/01/17 01:24:24;;;;;;;4.67;4.33;;;;;;;-5.17;100.00;97190.09;4177018;28;20215;-52
2024/01/17 01:26:26;;;;;;;5.20;4.87;;;;;;;-5.15;100.00;97179.22;4174336;28;20213;-52
2024/01/17 01:28:28;;;;;;;12.00;6.67;;;;;;;-5.18;100.00;97176.94;4177128;28;20232;-53
2024/01/17 01:30:30;;;;;;;5.50;5.10;;;;;;;-5.12;100.00;97165.53;4167669;28;20211;-52
2024/01/17 01:32:32;;;;;;;6.07;5.47;;;;;;;-5.15;100.00;97165.88;4187082;28;20274;-52
2024/01/17 01:34:34;;;;;;;6.87;6.37;;;;;;;-5.14;100.00;97162.25;4171192;28;20212;-52
2024/01/17 01:36:36;;;;;;;6.93;3.77;;;;;;;-5.04;100.00;97157.44;4172842;28;20299;-52
2024/01/17 01:38:38;;;;;;;5.97;5.47;;;;;;;-5.18;100.00;97161.78;4168808;28;20204;-52
2024/01/17 01:40:40;;;;;;;9.17;5.13;;;;;;;-5.15;100.00;97155.22;4169328;28;21145;-52
2024/01/17 01:42:45;;;;;;;6.60;6.00;;;;;;;-5.22;100.00;97148.19;4170996;28;20223;-53
2024/01/17 01:44:46;;;;;;;4.90;4.60;;;;;;;-5.20;100.00;97155.78;4177707;28;20208;-52
2024/01/17 01:46:49;;;;;;;3.60;3.43;;;;;;;-5.46;100.00;97157.28;4161603;28;20304;-50
2024/01/17 01:48:50;;;;;;;7.10;6.60;;;;;;;-5.33;100.00;97161.97;4159282;28;20217;-53
2024/01/17 01:50:52;;;;;;;7.23;6.63;;;;;;;-5.37;100.00;97153.50;4177856;28;20219;-53
2024/01/17 01:52:54;;;;;;;4.33;4.03;;;;;;;-5.28;100.00;97161.22;4177974;28;20231;-53
2024/01/17 01:54:56;;;;;;;4.87;4.57;;;;;;;-5.27;100.00;97156.75;4178755;28;20255;-53
2024/01/17 01:56:59;;;;;;;5.43;4.90;;;;;;;-5.27;100.00;97148.75;4178478;28;20204;-53
2024/01/17 01:59:01;;;;;;;6.17;5.77;;;;;;;-5.27;100.00;97148.75;4173222;28;20208;-51
2024/01/17 02:01:06;;;;;;;5.67;5.17;;;;;;;-5.28;100.00;97145.25;4167614;28;20595;-52
2024/01/17 02:03:08;;;;;;;5.47;5.17;;;;;;;-5.24;100.00;97137.69;4173987;28;20208;-52
2024/01/17 02:05:09;;;;;;;5.17;4.87;;;;;;;-5.24;100.00;97124.38;4152358;28;20696;-53
2024/01/17 02:07:12;;;;;;;4.93;4.57;;;;;;;-5.23;100.00;97123.34;4173771;28;20220;-52
2024/01/17 02:09:15;;;;;;;5.50;5.00;;;;;;;-5.19;100.00;97125.47;4151440;28;20220;-52
2024/01/17 02:11:18;;;;;;;5.73;5.33;;;;;;;-5.07;100.00;97123.16;4170874;28;20224;-53
2024/01/17 02:13:20;;;;;;;5.47;5.17;;;;;;;-5.08;100.00;97122.31;4155256;28;20204;-53
2024/01/17 02:15:22;;;;;;;5.27;4.87;;;;;;;-5.07;100.00;97115.97;4170772;28;20248;-52
2024/01/17 02:17:24;;;;;;;6.27;5.97;;;;;;;-5.06;100.00;97111.47;4167210;28;20283;-53
2024/01/17 02:19:26;;;;;;;4.07;3.77;;;;;;;-5.05;100.00;97105.13;4177080;28;20252;-52
2024/01/17 02:21:29;;;;;;;5.87;5.57;;;;;;;-4.94;100.00;97100.13;4167222;28;20301;-52
2024/01/17 02:23:31;;;;;;;7.57;7.07;;;;;;;-4.93;100.00;97100.97;4178396;28;20505;-52
2024/01/17 02:25:32;;;;;;;7.20;6.70;;;;;;;-5.00;100.00;97094.75;4176577;28;20204;-52
2024/01/17 02:27:34;;;;;;;4.97;4.67;;;;;;;-5.03;100.00;97079.09;4152642;28;20565;-53
2024/01/17 02:29:36;;;;;;;4.30;3.97;;;;;;;-5.06;100.00;97071.50;4170381;28;20703;-52
2024/01/17 02:31:38;;;;;;;7.37;6.80;;;;;;;-5.02;100.00;97075.41;4168024;28;20323;-52
2024/01/17 02:33:40;;;;;;;6.27;5.77;;;;;;;-5.06;100.00;97063.50;4170887;28;20213;-52
2024/01/17 02:35:42;;;;;;;16.40;5.43;;;;;;;-5.06;100.00;97066.97;4155761;28;20240;-52
2024/01/17 02:37:44;;;;;;;5.30;4.97;;;;;;;-5.02;100.00;97059.41;4176505;28;20588;-52
2024/01/17 02:39:46;;;;;;;9.20;4.80;;;;;;;-4.91;100.00;97056.25;4176239;28;20200;-53
2024/01/17 02:41:48;;;;;;;9.77;6.30;;;;;;;-5.05;100.00;97059.81;4175940;28;20222;-53
2024/01/17 02:43:49;;;;;;;4.37;4.07;;;;;;;-5.05;100.00;97054.47;4168372;28;20299;-53
2024/01/17 02:45:51;;;;;;;6.83;6.23;;;;;;;-5.05;100.00;97054.47;4186116;28;20243;-51
2024/01/17 02:47:53;;;;;;;4.87;4.67;;;;;;;-5.03;100.00;97047.13;4175143;28;20219;-53
2024/01/17 02:49:57;;;;;;;6.67;6.10;;;;;;;-5.04;100.00;97046.31;4168456;28;20291;-53
2024/01/17 02:51:59;;;;;;;10.60;5.90;;;;;;;-4.99;100.00;97043.06;4169343;28;20239;-51
2024/01/17 02:54:01;;;;;;;6.00;5.47;;;;;;;-5.01;100.00;97039.78;4167255;28;20219;-52
2024/01/17 02:56:03;;;;;;;6.23;5.70;;;;;;;-4.95;100.00;97038.97;4168934;28;20228;-52
2024/01/17 02:58:05;;;;;;;5.53;5.33;;;;;;;-5.00;100.00;97025.41;4169695;28;20212;-51
2024/01/17 03:00:09;;;;;;;5.27;4.87;;;;;;;-4.97;100.00;97025.03;4170484;28;20648;-52
2024/01/17 03:02:11;;;;;;;7.43;5.00;;;;;;;-4.93;100.00;97020.97;4167643;28;20285;-53
2024/01/17 03:04:12;;;;;;;10.20;5.57;;;;;;;-4.94;100.00;97019.34;4174926;28;20672;-53
2024/01/17 03:06:16;;;;;;;10.60;6.73;;;;;;;-4.96;100.00;97016.00;4171230;28;20208;-52
2024/01/17 03:08:18;;;;;;;5.23;5.00;;;;;;;-4.98;100.00;97005.56;4171501;28;20219;-52
2024/01/17 03:10:20;;;;;;;6.50;5.77;;;;;;;-4.99;100.00;97021.75;4167343;28;20211;-52
2024/01/17 03:12:22;;;;;;;5.67;5.27;;;;;;;-4.98;100.00;97015.38;4175734;28;20764;-52
2024/01/17 03:14:23;;;;;;;4.83;4.53;;;;;;;-4.98;100.00;97012.72;4175825;28;20768;-53
2024/01/17 03:16:25;;;;;;;8.90;4.93;;;;;;;-4.97;100.00;97009.88;4158774;28;20278;-53
2024/01/17 03:18:27;;;;;;;6.23;5.63;;;;;;;-4.96;100.00;97016.84;4168413;28;20200;-52
2024/01/17 03:20:29;;;;;;;5.37;5.10;;;;;;;-4.94;100.00;96993.47;4175135;28;20211;-52
2024/01/17 03:22:31;;;;;;;7.30;6.70;;;;;;;-4.97;100.00;96987.69;4170530;28;20267;-53
2024/01/17 03:24:32;;;;;;;5.50;5.20;;;;;;;-4.83;100.00;96984.13;4169338;28;20212;-52
2024/01/17 03:26:34;;;;;;;12.93;8.17;;;;;;;-4.91;100.00;96986.94;4171242;28;20207;-54
2024/01/17 03:28:36;;;;;;;6.30;6.00;;;;;;;-4.96;100.00;96989.34;4170721;28;20215;-53
2024/01/17 03:30:37;;;;;;;7.73;7.07;;;;;;;-5.01;100.00;96975.78;4167903;28;20212;-53
2024/01/17 03:32:39;;;;;;;4.93;4.53;;;;;;;-5.00;100.00;96974.78;4167154;28;20725;-52
2024/01/17 03:34:41;;;;;;;5.50;5.10;;;;;;;-4.92;100.00;96974.63;4168293;28;20211;-52
2024/01/17 03:36:43;;;;;;;5.17;4.87;;;;;;;-4.88;100.00;96975.91;4170930;28;20232;-53
2024/01/17 03:38:45;;;;;;;4.87;4.60;;;;;;;-4.80;100.00;96965.91;4171514;28;20215;-53
2024/01/17 03:40:47;;;;;;;6.23;5.80;;;;;;;-4.89;100.00;96952.91;4173577;28;20291;-53
2024/01/17 03:42:48;;;;;;;5.07;4.70;;;;;;;-4.89;100.00;96942.25;4176664;28;20220;-54
2024/01/17 03:44:50;;;;;;;5.23;5.03;;;;;;;-4.87;100.00;96937.56;4167594;28;24097;-54
2024/01/17 03:46:52;;;;;;;6.33;5.90;;;;;;;-4.84;100.00;96934.50;4176392;28;20583;-53
2024/01/17 03:48:54;;;;;;;6.80;6.40;;;;;;;-4.81;100.00;96928.78;4170022;28;20207;-53
2024/01/17 03:50:56;;;;;;;11.37;6.80;;;;;;;-4.75;100.00;96907.50;4159961;28;20247;-52
2024/01/17 03:52:57;;;;;;;5.63;5.27;;;;;;;-4.71;100.00;96918.59;4176314;28;20204;-52
2024/01/17 03:54:59;;;;;;;5.27;4.87;;;;;;;-4.59;100.00;96911.69;4169483;28;20216;-53
2024/01/17 03:57:01;;;;;;;6.77;6.27;;;;;;;-4.60;100.00;96904.72;4169450;28;20788;-52
2024/01/17 03:59:04;;;;;;;5.30;4.90;;;;;;;-4.60;100.00;96904.72;4167616;28;20266;-53
2024/01/17 04:01:06;;;;;;;7.70;6.20;;;;;;;-4.56;100.00;96889.94;4175483;28;20200;-51
2024/01/17 04:03:13;;;;;;;7.23;6.83;;;;;;;-4.50;100.00;96884.66;4173258;28;20262;-54
2024/01/17 04:05:19;;;;;;;5.03;4.73;;;;;;;-4.53;100.00;96878.91;4168298;28;21181;-53
2024/01/17 04:07:22;;;;;;;6.33;5.77;;;;;;;-4.52;100.00;96875.22;4166794;28;20208;-53
2024/01/17 04:09:24;;;;;;;4.53;4.33;;;;;;;-4.49;100.00;96870.31;4152027;28;20255;-53
2024/01/17 04:11:26;;;;;;;7.60;6.03;;;;;;;-4.69;100.00;96857.88;4174421;28;20810;-53
2024/01/17 04:13:28;;;;;;;11.93;5.90;;;;;;;-4.63;100.00;96862.41;4168921;28;20235;-54
2024/01/17 04:15:29;;;;;;;5.03;4.70;;;;;;;-4.56;100.00;96852.59;4154247;28;20220;-51
2024/01/17 04:17:31;;;;;;;10.17;6.13;;;;;;;-4.57;100.00;96841.13;4171740;28;20215;-52
2024/01/17 04:19:33;;;;;;;5.33;5.13;;;;;;;-4.54;100.00;96839.91;4168428;28;20265;-54
2024/01/17 04:21:35;;;;;;;4.23;3.90;;;;;;;-4.47;100.00;96828.22;4169357;28;20252;-54
2024/01/17 04:23:37;;;;;;;5.17;4.73;;;;;;;-4.41;100.00;96819.44;4169036;28;20204;-53
2024/01/17 04:25:38;;;;;;;5.00;4.80;;;;;;;-4.32;100.00;96817.44;4171897;28;20208;-53
2024/01/17 04:27:40;;;;;;;5.27;4.87;;;;;;;-4.46;100.00;96815.72;4183393;28;20212;-54
2024/01/17 04:29:42;;;;;;;4.43;4.03;;;;;;;-4.52;100.00;96816.53;4169443;28;20208;-54
2024/01/17 04:31:44;;;;;;;4.87;4.50;;;;;;;-4.48;100.00;96801.78;4168274;28;20650;-54
2024/01/17 04:33:46;;;;;;;3.53;3.27;;;;;;;-4.42;100.00;96798.28;4169354;28;20218;-53
2024/01/17 04:35:47;;;;;;;5.87;5.47;;;;;;;-4.39;100.00;96784.56;4173525;28;20686;-52
2024/01/17 04:37:49;;;;;;;4.20;3.90;;;;;;;-4.34;100.00;96779.44;4169123;28;20294;-53
2024/01/17 04:39:51;;;;;;;4.77;4.43;;;;;;;-4.25;100.00;96780.91;4168420;28;21005;-53
2024/01/17 04:41:53;;;;;;;12.73;5.53;;;;;;;-4.30;100.00;96778.00;4167556;28;20228;-53
2024/01/17 04:43:55;;;;;;;7.33;4.67;;;;;;;-4.27;100.00;96769.63;4173907;28;20291;-53
2024/01/17 04:45:57;;;;;;;17.73;4.70;;;;;;;-4.31;100.00;96765.69;4174767;28;20207;-53
2024/01/17 04:47:59;;;;;;;5.20;4.90;;;;;;;-4.32;100.00;96769.41;4170439;28;20234;-53
2024/01/17 04:50:01;;;;;;;4.97;4.57;;;;;;;-4.30;100.00;96762.00;4152948;28;20228;-52
2024/01/17 04:52:03;;;;;;;6.17;5.70;;;;;;;-4.25;100.00;96754.22;4174775;28;20238;-52
2024/01/17 04:54:05;;;;;;;6.53;5.07;;;;;;;-4.23;100.00;96752.16;4173742;28;20653;-53
2024/01/17 04:56:08;;;;;;;5.83;3.60;;;;;;;-4.18;100.00;96752.38;4168590;28;20235;-52
2024/01/17 04:58:09;;;;;;;5.30;4.90;;;;;;;-4.15;100.00;96752.00;4165787;28;20553;-52
2024/01/17 05:00:14;;;;;;;6.53;4.53;;;;;;;-4.12;100.00;96738.22;4173980;28;20216;-53
2024/01/17 05:02:16;;;;;;;5.50;5.20;;;;;;;-4.10;100.00;96736.16;4166677;28;20319;-53
2024/01/17 05:04:18;;;;;;;4.83;4.53;;;;;;;-4.03;100.00;96739.69;4180829;28;20212;-53
2024/01/17 05:06:20;;;;;;;4.63;4.33;;;;;;;-3.88;100.00;96737.66;4184631;28;20291;-52
2024/01/17 05:08:22;;;;;;;5.73;5.23;;;;;;;-3.91;100.00;96727.38;4167517;28;20266;-52
2024/01/17 05:10:23;;;;;;;5.83;5.43;;;;;;;-3.99;100.00;96733.72;4174935;28;20231;-52
2024/01/17 05:12:25;;;;;;;4.47;4.17;;;;;;;-4.01;100.00;96718.97;4169569;28;20274;-52
2024/01/17 05:14:27;;;;;;;5.47;5.00;;;;;;;-3.99;100.00;96719.56;4175208;28;20208;-52
2024/01/17 05:16:29;;;;;;;5.43;5.10;;;;;;;-3.99;100.00;96711.56;4152322;28;20316;-54
2024/01/17 05:18:30;;;;;;;13.83;5.33;;;;;;;-3.93;100.00;96711.53;4168945;28;20688;-53
2024/01/17 05:20:33;;;;;;;3.77;3.53;;;;;;;-3.93;100.00;96706.19;4175721;28;20303;-53
2024/01/17 05:22:39;;;;;;;5.13;4.93;;;;;;;-3.92;100.00;96707.03;4168763;28;20231;-53
2024/01/17 05:24:41;;;;;;;5.07;4.67;;;;;;;-3.87;100.00;96693.91;4169117;28;20736;-53
2024/01/17 05:26:43;;;;;;;4.37;4.07;;;;;;;-3.82;100.00;96696.75;4170398;28;20295;-54
2024/01/17 05:28:45;;;;;;;4.03;3.77;;;;;;;-3.80;100.00;96689.38;4174005;28;20208;-53
2024/01/17 05:30:47;;;;;;;3.53;3.23;;;;;;;-3.81;100.00;96687.75;4172173;28;20209;-53
2024/01/17 05:32:50;;;;;;;4.97;4.57;;;;;;;-3.80;100.00;96678.69;4171194;28;20228;-53
2024/01/17 05:34:54;;;;;;;5.20;4.90;;;;;;;-3.82;100.00;96675.38;4178677;28;20243;-53
2024/01/17 05:36:55;;;;;;;5.87;5.40;;;;;;;-3.74;100.00;96678.69;4162278;28;20713;-53
2024/01/17 05:38:57;;;;;;;4.10;3.87;;;;;;;-3.74;100.00;96668.00;4172794;28;20219;-53
2024/01/17 05:40:59;;;;;;;6.07;5.60;;;;;;;-3.79;100.00;96664.31;4169313;28;20295;-55
2024/01/17 05:43:01;;;;;;;4.70;4.23;;;;;;;-3.80;100.00;96657.34;4171948;28;20219;-56
2024/01/17 05:45:04;;;;;;;7.67;5.30;;;;;;;-3.80;100.00;96657.34;4173775;28;20300;-55
2024/01/17 05:47:05;;;;;;;4.60;4.30;;;;;;;-3.71;100.00;96661.41;4170581;28;20744;-54
2024/01/17 05:49:09;;;;;;;4.97;4.77;;;;;;;-3.74;100.00;96653.84;4171779;28;20568;-53
2024/01/17 05:51:12;;;;;;;5.10;4.23;;;;;;;-3.71;100.00;96648.06;4177644;28;20204;-52
2024/01/17 05:53:14;;;;;;;4.13;3.87;;;;;;;-3.62;100.00;96654.81;4175298;28;20212;-53
2024/01/17 05:55:17;;;;;;;5.77;5.27;;;;;;;-3.59;100.00;96643.75;4171108;28;20222;-54
2024/01/17 05:57:18;;;;;;;5.00;4.63;;;;;;;-3.62;100.00;96633.44;4179376;28;20588;-54
2024/01/17 05:59:20;;;;;;;7.10;3.70;;;;;;;-3.63;100.00;96637.16;4169280;28;20215;-51
2024/01/17 06:01:22;;;;;;;4.33;4.07;;;;;;;-3.68;100.00;96634.31;4175834;28;20232;-55
2024/01/17 06:03:24;;;;;;;3.33;3.23;;;;;;;-3.62;100.00;96633.44;4176924;28;20219;-51
2024/01/17 06:05:26;;;;;;;5.47;5.13;;;;;;;-3.61;100.00;96629.78;4168305;28;20302;-54
2024/01/17 06:07:28;;;;;;;5.27;4.80;;;;;;;-3.62;100.00;96622.75;4171887;28;20710;-55
2024/01/17 06:09:30;;;;;;;22.73;4.27;;;;;;;-3.61;100.00;96619.09;4174214;28;20203;-54
2024/01/17 06:11:31;;;;;;;4.30;4.07;;;;;;;-3.70;100.00;96609.63;4171123;28;20233;-56
2024/01/17 06:13:33;;;;;;;5.07;4.53;;;;;;;-3.76;100.00;96605.94;4169928;28;20212;-51
2024/01/17 06:15:38;;;;;;;9.93;6.33;;;;;;;-3.82;100.00;96601.44;4170280;28;20254;-51
2024/01/17 06:17:40;;;;;;;3.90;3.60;;;;;;;-3.74;100.00;96603.09;4167826;28;20562;-51
2024/01/17 06:19:42;;;;;;;3.63;3.53;;;;;;;-3.69;100.00;96595.25;4176253;28;20255;-51
2024/01/17 06:21:44;;;;;;;5.50;5.20;;;;;;;-3.76;100.00;96589.09;4176532;28;20778;-51
2024/01/17 06:23:45;;;;;;;5.67;5.27;;;;;;;-3.69;100.00;96584.56;4172080;28;20212;-51
2024/01/17 06:25:47;;;;;;;4.90;4.60;;;;;;;-3.55;100.00;96578.19;4186114;28;20238;-50
2024/01/17 06:27:49;;;;;;;5.20;4.80;;;;;;;-3.55;100.00;96568.28;4177300;28;20204;-51
2024/01/17 06:29:51;;;;;;;5.07;4.77;;;;;;;-3.35;100.00;96562.91;4170578;28;20213;-52
2024/01/17 06:31:53;;;;;;;6.57;6.07;;;;;;;-3.37;100.00;96567.59;4173403;28;20433;-52
2024/01/17 06:33:55;;;;;;;4.50;4.30;;;;;;;-3.32;100.00;96557.94;4174685;28;20200;-52
2024/01/17 06:35:58;;;;;;;5.30;5.00;;;;;;;-3.28;100.00;96558.34;4172598;28;20238;-51
2024/01/17 06:38:00;;;;;;;4.93;4.63;;;;;;;-3.24;100.00;96548.84;4175768;28;20789;-52
2024/01/17 06:40:01;;;;;;;3.23;3.03;;;;;;;-3.18;100.00;96543.47;4172693;28;20601;-52
2024/01/17 06:42:05;;;;;;;3.17;3.07;;;;;;;-3.15;100.00;96550.25;4171624;28;20228;-51
2024/01/17 06:44:07;;;;;;;4.27;4.03;;;;;;;-3.10;100.00;96551.25;4155620;28;20707;-52
2024/01/17 06:46:09;;;;;;;4.50;4.20;;;;;;;-2.96;100.00;96534.09;4172613;28;20266;-54
2024/01/17 06:48:10;;;;;;;5.70;5.30;;;;;;;-2.96;100.00;96534.09;4171962;28;20240;-54
2024/01/17 06:50:14;;;;;;;4.90;4.50;;;;;;;-2.93;100.00;96524.84;4153106;28;20216;-58
2024/01/17 06:52:15;;;;;;;3.00;2.90;;;;;;;-2.94;100.00;96526.66;4176942;28;20340;-54
2024/01/17 06:54:20;;;;;;;7.47;3.93;;;;;;;-2.88;100.00;96525.00;4171437;28;20231;-53
2024/01/17 06:56:25;;;;;;;5.50;5.10;;;;;;;-2.79;100.00;96521.88;4168655;28;20331;-53
2024/01/17 06:58:27;;;;;;;6.03;5.63;;;;;;;-2.87;100.00;96521.28;4169784;28;20204;-55
2024/01/17 07:00:28;;;;;;;4.03;3.73;;;;;;;-2.88;100.00;96519.66;4170571;28;20236;-52
2024/01/17 07:02:35;;;;;;;11.67;5.07;;;;;;;-2.94;100.00;96515.16;4166965;28;20224;-51
2024/01/17 07:04:40;;;;;;;6.67;5.00;;;;;;;-2.93;100.00;96516.81;4165784;28;20201;-51
2024/01/17 07:06:42;;;;;;;4.33;3.93;;;;;;;-2.87;100.00;96506.03;4171786;28;20201;-52
2024/01/17 07:08:47;;;;;;;4.23;3.60;;;;;;;-2.83;100.00;96511.78;4166888;28;20204;-54
2024/01/17 07:10:49;;;;;;;8.57;5.10;;;;;;;-2.79;100.00;96502.31;4169326;28;20255;-51
2024/01/17 07:12:54;;;;;;;3.70;3.50;;;;;;;-2.76;100.00;96501.84;4150385;28;20225;-52
2024/01/17 07:14:56;;;;;;;4.83;4.53;;;;;;;-2.69;100.00;96497.28;4158075;28;20698;-53
2024/01/17 07:16:57;;;;;;;4.60;4.30;;;;;;;-2.66;100.00;96491.50;4175015;28;20800;-53
2024/01/17 07:19:00;;;;;;;4.50;4.10;;;;;;;-2.68;100.00;96489.03;4176049;28;20265;-53
2024/01/17 07:21:06;;;;;;;4.57;4.23;;;;;;;-2.59;100.00;96481.56;4177724;28;20254;-55
2024/01/17 07:23:08;;;;;;;4.67;4.37;;;;;;;-2.64;100.00;96473.38;4173598;28;20212;-52
2024/01/17 07:25:12;;;;;;;4.70;4.40;;;;;;;-2.67;100.00;96473.81;4167169;28;20200;-54
2024/01/17 07:27:14;;;;;;;9.47;4.80;;;;;;;-2.57;100.00;96476.81;4171866;28;20208;-54
2024/01/17 07:29:15;;;;;;;4.37;4.07;;;;;;;-2.57;100.00;96468.78;4171366;28;20696;-53
2024/01/17 07:31:17;;;;;;;4.73;4.43;;;;;;;-2.55;100.00;96472.88;4167831;28;20243;-53
2024/01/17 07:33:19;;;;;;;4.23;3.93;;;;;;;-2.59;100.00;96470.88;4169428;28;20211;-53
2024/01/17 07:35:21;;;;;;;5.07;4.77;;;;;;;-2.59;100.00;96455.63;4166475;28;20286;-52
2024/01/17 07:37:23;;;;;;;5.13;4.83;;;;;;;-2.69;100.00;96454.47;4159586;28;20238;-53
2024/01/17 07:39:25;;;;;;;3.93;3.63;;;;;;;-2.53;100.00;96449.38;4168859;28;20212;-54
2024/01/17 07:41:28;;;;;;;5.10;4.70;;;;;;;-2.62;100.00;96449.91;4165659;28;20804;-53
2024/01/17 07:43:31;;;;;;;5.83;5.37;;;;;;;-2.55;100.00;96440.75;4154086;28;20201;-52
2024/01/17 07:45:36;;;;;;;4.00;3.80;;;;;;;-2.47;100.00;96426.28;4171407;28;20244;-52
2024/01/17 07:47:41;;;;;;;7.10;6.40;;;;;;;-2.41;100.00;96430.78;4172918;28;20196;-53
2024/01/17 07:49:44;;;;;;;3.77;3.47;;;;;;;-2.38;100.00;96419.59;4170359;28;20205;-53
2024/01/17 07:51:46;;;;;;;5.20;4.50;;;;;;;-2.37;100.00;96414.03;4168340;28;20248;-53
2024/01/17 07:53:48;;;;;;;5.70;4.87;;;;;;;-2.32;100.00;96416.06;4167066;28;20204;-55
2024/01/17 07:55:50;;;;;;;4.63;4.33;;;;;;;-2.29;100.00;96412.91;4169902;28;20259;-53
2024/01/17 07:57:58;;;;;;;4.03;3.73;;;;;;;-2.27;100.00;96413.53;4173794;28;20319;-52
2024/01/17 07:59:59;;;;;;;4.63;4.33;;;;;;;-2.25;100.00;96403.41;4175634;28;20231;-52
2024/01/17 08:02:04;;;;;;;4.43;4.13;;;;;;;-2.19;100.00;96403.34;4176401;28;20318;-53
2024/01/17 08:04:06;;;;;;;4.27;3.97;;;;;;;-2.21;100.00;96399.25;4168770;28;20421;-53
2024/01/17 08:06:09;;;;;;;4.67;4.37;;;;;;;-2.13;100.00;96407.00;4166326;28;20307;-54
2024/01/17 08:08:11;;;;;;;3.80;3.60;;;;;;;-2.17;100.00;96395.06;4155543;28;20205;-54
2024/01/17 08:10:16;;;;;;;6.03;3.30;;;;;;;-2.16;100.00;96397.53;4169184;28;20245;-57
2024/01/17 08:12:22;;;;;;;7.40;5.07;;;;;;;-2.13;100.00;96396.28;4166164;28;20250;-52
2024/01/17 08:14:24;;;;;;;4.70;4.43;;;;;;;-2.12;100.00;96397.91;4165743;28;20676;-54
2024/01/17 08:16:25;;;;;;;20.03;3.47;;;;;;;-2.08;100.00;96388.41;4152018;28;20211;-55
2024/01/17 08:18:28;;;;;;;5.10;4.60;;;;;;;-2.05;100.00;96394.13;4175510;28;20216;-53
2024/01/17 08:20:31;;;;;;;4.63;4.43;;;;;;;-2.02;100.00;96382.16;4175082;28;20212;-52
2024/01/17 08:22:34;;;;;;;4.70;4.40;;;;;;;-2.02;100.00;96371.44;4170288;28;20228;-52
2024/01/17 08:24:36;;;;;;;4.40;4.10;;;;;;;-2.00;100.00;96374.69;4166219;28;20570;-54
2024/01/17 08:26:40;;;;;;;3.80;3.50;;;;;;;-1.99;100.00;96365.63;4173720;28;20222;-53
2024/01/17 08:28:43;;;;;;;4.13;3.83;;;;;;;-1.95;100.00;96366.81;4169990;28;20684;-52
2024/01/17 08:30:47;;;;;;;3.90;3.60;;;;;;;-1.89;100.00;96357.88;4153906;28;20201;-53
2024/01/17 08:32:51;;;;;;;4.50;4.13;;;;;;;-1.93;100.00;96352.13;4157233;28;20219;-53
2024/01/17 08:34:54;;;;;;;5.47;5.17;;;;;;;-1.87;100.00;96353.09;4153249;28;20204;-52
2024/01/17 08:36:56;;;;;;;3.37;3.17;;;;;;;-1.84;100.00;96341.94;4175060;28;20218;-54
2024/01/17 08:39:00;;;;;;;3.20;3.00;;;;;;;-1.86;100.00;96335.97;4169915;28;20215;-54
2024/01/17 08:41:02;;;;;;;4.37;4.07;;;;;;;-1.81;100.00;96325.41;4169041;28;20208;-54
2024/01/17 08:43:04;;;;;;;4.43;3.57;;;;;;;-1.81;100.00;96328.09;4172201;28;20234;-54
2024/01/17 08:45:07;;;;;;;3.53;3.30;;;;;;;-1.76;100.00;96317.47;4174811;28;20309;-54
2024/01/17 08:47:09;;;;;;;10.47;5.37;;;;;;;-1.63;100.00;96322.66;4169878;28;20878;-52
2024/01/17 08:49:11;;;;;;;4.77;4.37;;;;;;;-1.67;100.00;96316.94;4169994;28;20224;-55
2024/01/17 08:51:14;;;;;;;3.83;3.50;;;;;;;-1.67;100.00;96306.22;4152854;28;20653;-56
2024/01/17 08:53:16;;;;;;;4.37;4.07;;;;;;;-1.66;100.00;96301.69;4175006;28;20204;-55
2024/01/17 08:55:17;;;;;;;3.93;3.63;;;;;;;-1.61;100.00;96293.78;4157382;28;20291;-55
2024/01/17 08:57:19;;;;;;;2.67;2.47;;;;;;;-1.61;100.00;96288.44;4139180;28;20248;-55
2024/01/17 08:59:21;;;;;;;4.50;4.17;;;;;;;-1.55;100.00;96284.84;4141369;28;20610;-55
2024/01/17 09:01:23;;;;;;;4.23;3.93;;;;;;;-1.45;100.00;96283.22;4151976;28;20303;-53
2024/01/17 09:03:29;;;;;;;7.70;4.13;;;;;;;-1.46;100.00;96281.59;4156183;28;20212;-55
2024/01/17 09:05:31;;;;;;;4.40;4.20;;;;;;;-1.40;100.00;96279.84;4156130;28;20205;-51
2024/01/17 09:07:35;;;;;;;3.57;3.30;;;;;;;-1.36;100.00;96275.63;4161081;28;20212;-52
2024/01/17 09:09:38;;;;;;;4.27;3.97;;;;;;;-1.31;100.00;96257.00;4160294;28;20623;-52
2024/01/17 09:11:39;;;;;;;10.17;6.13;;;;;;;-1.27;100.00;96250.94;4159061;28;20311;-54
2024/01/17 09:13:42;;;;;;;3.67;3.37;;;;;;;-1.24;100.00;96241.63;4153613;28;20263;-54
2024/01/17 09:15:45;;;;;;;5.93;5.43;;;;;;;-1.22;100.00;96236.84;4153460;28;20227;-55
2024/01/17 09:17:47;;;;;;;4.53;4.23;;;;;;;-1.14;100.00;96236.50;4154784;28;20307;-55
2024/01/17 09:19:50;;;;;;;4.53;4.23;;;;;;;-1.08;100.00;96232.88;4155667;28;20216;-52
2024/01/17 09:21:54;;;;;;;5.80;3.63;;;;;;;-1.02;100.00;96237.31;4154520;28;20224;-54
2024/01/17 09:23:55;;;;;;;4.70;4.40;;;;;;;-1.00;100.00;96227.16;4144365;28;20205;-54
2024/01/17 09:25:58;;;;;;;4.40;3.67;;;;;;;-0.94;100.00;96220.88;4155207;28;20705;-54
2024/01/17 09:28:02;;;;;;;8.67;4.17;;;;;;;-0.91;100.00;96215.84;4153981;28;20267;-53